Schedule Details


Flight Number: CTN411
Departure: Frankfurt/main (EDDF) at 18:00
Arrival: Franjo Tudman (LDZA) at 19:25
Route: NOMBO UZ738 MUN UM867 VAROB DCT PIKIT DCT ARGOM

Weather Information
EDDF 251820Z 25004KT 9999 FEW070CB 27/14 Q1018 NOSIG
LDZA 251830Z 03004KT 010V070 CAVOK 24/19 Q1019 NOSIG
Schedule Frequency

Route Map